Time;durP1;ratioP1;P1;durP2;ratioP2;P2;SDS_P1;SDS_P2;PMS_P1;PMS_P2;Temp;Humidity;BMP_temperature;BMP_pressure;BME280_temperature;BME280_humidity;BME280_pressure;Samples;Min_cycle;Max_cycle;Signal;HPM_P1;HPM_P2
2021/07/16 00:00:17;;;;;;;5.70;5.10;;;17.30;99.90;;;;;;5017092;28;20494;-90
2021/07/16 00:02:45;;;;;;;6.50;5.90;;;17.20;99.90;;;;;;5029889;28;20477;-90
2021/07/16 00:05:16;;;;;;;5.93;5.33;;;17.20;99.90;;;;;;5037153;28;20484;-89
2021/07/16 00:07:43;;;;;;;7.10;5.60;;;17.20;99.90;;;;;;5036030;28;20449;-90
2021/07/16 00:10:13;;;;;;;5.77;5.33;;;17.20;99.90;;;;;;5050775;28;20473;-89
2021/07/16 00:12:42;;;;;;;5.13;4.63;;;17.20;99.90;;;;;;5022510;28;20444;-90
2021/07/16 00:15:10;;;;;;;6.77;6.17;;;17.20;99.90;;;;;;5016285;28;20446;-89
2021/07/16 00:17:38;;;;;;;5.60;4.83;;;17.20;99.90;;;;;;5018311;28;20458;-89
2021/07/16 00:20:05;;;;;;;5.90;5.50;;;17.10;99.90;;;;;;5030430;28;20473;-89
2021/07/16 00:22:33;;;;;;;6.90;6.30;;;17.10;99.90;;;;;;5049656;28;20446;-89
2021/07/16 00:24:59;;;;;;;6.50;5.53;;;17.10;99.90;;;;;;5048926;28;20449;-89
2021/07/16 00:27:26;;;;;;;8.80;6.20;;;17.20;99.90;;;;;;5039349;28;20452;-89
2021/07/16 00:29:54;;;;;;;5.83;5.23;;;17.30;99.90;;;;;;5038977;28;20477;-88
2021/07/16 00:32:21;;;;;;;5.20;4.80;;;17.30;99.90;;;;;;5038971;28;20452;-87
2021/07/16 00:34:47;;;;;;;5.80;5.30;;;17.40;99.90;;;;;;5038854;28;20430;-87
2021/07/16 00:37:14;;;;;;;6.50;5.90;;;17.40;99.90;;;;;;5037538;28;20523;-89
2021/07/16 00:39:41;;;;;;;6.63;6.13;;;17.40;99.90;;;;;;5030698;28;20476;-89
2021/07/16 00:42:08;;;;;;;8.73;7.00;;;17.40;99.90;;;;;;5026282;28;20445;-90
2021/07/16 00:44:36;;;;;;;7.73;6.93;;;17.50;99.90;;;;;;5016284;28;20460;-88
2021/07/16 00:47:05;;;;;;;6.93;6.33;;;17.50;99.90;;;;;;5016894;28;20478;-89
2021/07/16 00:49:31;;;;;;;6.90;6.20;;;17.50;99.90;;;;;;5023207;28;20489;-89
2021/07/16 00:51:59;;;;;;;6.23;5.73;;;17.60;99.90;;;;;;5016497;28;20455;-90
2021/07/16 00:54:25;;;;;;;7.00;6.50;;;17.60;99.90;;;;;;5017115;28;20450;-89
2021/07/16 00:56:53;;;;;;;7.50;6.20;;;17.60;99.90;;;;;;5018519;28;20454;-88
2021/07/16 00:59:20;;;;;;;8.23;6.30;;;17.60;99.90;;;;;;5036619;28;20458;-88
2021/07/16 01:01:48;;;;;;;10.47;6.50;;;17.60;99.90;;;;;;5027483;28;20968;-90
2021/07/16 01:04:16;;;;;;;9.03;6.90;;;17.60;99.90;;;;;;5018468;28;20463;-90
2021/07/16 01:06:43;;;;;;;7.20;6.60;;;17.50;99.90;;;;;;5016352;28;20486;-90
2021/07/16 01:09:09;;;;;;;7.37;6.70;;;17.50;99.90;;;;;;5016322;28;20863;-88
2021/07/16 01:11:36;;;;;;;8.00;6.67;;;17.50;99.90;;;;;;5015996;28;20798;-90
2021/07/16 01:14:03;;;;;;;8.13;6.70;;;17.50;99.90;;;;;;5019112;28;20440;-89
2021/07/16 01:16:30;;;;;;;8.30;7.03;;;17.50;99.90;;;;;;5020323;28;20458;-89
2021/07/16 01:18:57;;;;;;;7.10;6.40;;;17.50;99.90;;;;;;5027476;28;20449;-90
2021/07/16 01:21:28;;;;;;;7.03;6.43;;;17.50;99.90;;;;;;5035839;28;20471;-88
2021/07/16 01:23:57;;;;;;;7.63;6.93;;;17.50;99.90;;;;;;5035616;28;20954;-90
2021/07/16 01:26:24;;;;;;;8.90;6.33;;;17.40;99.90;;;;;;5035657;28;20487;-89
2021/07/16 01:28:52;;;;;;;6.90;6.33;;;17.30;99.90;;;;;;5025821;28;20455;-90
2021/07/16 01:31:19;;;;;;;6.90;6.30;;;17.20;99.90;;;;;;5026949;28;20478;-90
2021/07/16 01:33:46;;;;;;;6.37;5.77;;;17.10;99.90;;;;;;5017073;28;20460;-89
2021/07/16 01:36:13;;;;;;;7.77;5.50;;;17.10;99.90;;;;;;5016474;28;20457;-83
2021/07/16 01:38:40;;;;;;;6.17;5.63;;;17.20;99.90;;;;;;5027195;28;20448;-83
2021/07/16 01:41:08;;;;;;;5.87;5.47;;;17.20;99.90;;;;;;5039859;28;20469;-83
2021/07/16 01:43:34;;;;;;;5.87;5.40;;;17.20;99.90;;;;;;5040041;28;20444;-83
2021/07/16 01:46:01;;;;;;;5.80;5.40;;;17.30;99.90;;;;;;5037824;28;20489;-83
2021/07/16 01:48:30;;;;;;;6.30;5.73;;;17.20;99.90;;;;;;5038927;28;20465;-83
2021/07/16 01:50:57;;;;;;;6.20;5.60;;;17.00;99.90;;;;;;5039573;28;20477;-83
2021/07/16 01:53:23;;;;;;;5.80;5.30;;;17.00;99.90;;;;;;5039208;28;20529;-83
2021/07/16 01:55:50;;;;;;;5.83;5.33;;;17.00;99.90;;;;;;5038286;28;20466;-82
2021/07/16 01:58:18;;;;;;;5.90;5.03;;;17.10;99.90;;;;;;5034681;28;20454;-83
2021/07/16 02:00:47;;;;;;;6.83;4.70;;;17.00;99.90;;;;;;5020354;28;21019;-82
2021/07/16 02:03:16;;;;;;;6.03;5.40;;;17.00;99.90;;;;;;5019647;28;20445;-83
2021/07/16 02:05:44;;;;;;;7.50;5.40;;;17.00;99.90;;;;;;5020000;28;20465;-82
2021/07/16 02:08:14;;;;;;;6.70;6.10;;;17.00;99.90;;;;;;5024739;28;20463;-82
2021/07/16 02:10:41;;;;;;;6.20;5.63;;;16.90;99.90;;;;;;5038877;28;20484;-83
2021/07/16 02:13:07;;;;;;;6.27;5.53;;;16.90;99.90;;;;;;5039828;28;20457;-83
2021/07/16 02:15:37;;;;;;;6.00;5.50;;;16.90;99.90;;;;;;5039095;28;20449;-83
2021/07/16 02:18:05;;;;;;;6.50;5.87;;;17.00;99.90;;;;;;5043164;28;20881;-83
2021/07/16 02:20:33;;;;;;;8.70;5.93;;;16.90;99.90;;;;;;5023710;28;20482;-83
2021/07/16 02:23:03;;;;;;;8.40;6.53;;;16.80;99.90;;;;;;5026985;28;20540;-83
2021/07/16 02:25:30;;;;;;;6.87;6.27;;;16.80;99.90;;;;;;5038800;28;20453;-83
2021/07/16 02:27:59;;;;;;;7.03;6.27;;;16.80;99.90;;;;;;5039317;28;21007;-83
2021/07/16 02:30:28;;;;;;;8.10;6.20;;;16.80;99.90;;;;;;5039271;28;20472;-84
2021/07/16 02:32:57;;;;;;;7.03;6.33;;;16.80;99.90;;;;;;5039293;28;20453;-83
2021/07/16 02:35:24;;;;;;;7.30;6.57;;;16.80;99.90;;;;;;5038651;28;20789;-83
2021/07/16 02:37:52;;;;;;;7.67;6.87;;;16.80;99.90;;;;;;5036140;28;20457;-83
2021/07/16 02:40:19;;;;;;;7.27;6.60;;;16.80;99.90;;;;;;5022594;28;20470;-83
2021/07/16 02:42:47;;;;;;;6.53;6.03;;;16.90;99.90;;;;;;5020943;28;20446;-83
2021/07/16 02:45:16;;;;;;;6.93;6.40;;;17.00;99.90;;;;;;5020011;28;20458;-83
2021/07/16 02:47:44;;;;;;;6.80;6.10;;;17.00;99.90;;;;;;5034398;28;20473;-83
2021/07/16 02:50:14;;;;;;;6.93;6.17;;;17.00;99.90;;;;;;5049901;28;20978;-83
2021/07/16 02:52:41;;;;;;;6.07;5.57;;;17.00;99.90;;;;;;5041401;28;20437;-83
2021/07/16 02:55:09;;;;;;;6.83;6.23;;;17.00;99.90;;;;;;5038624;28;20468;-83
2021/07/16 02:57:36;;;;;;;6.67;6.17;;;17.00;99.90;;;;;;5038276;28;20454;-83
2021/07/16 03:00:06;;;;;;;7.00;6.40;;;17.10;99.90;;;;;;5041501;28;20833;-82
2021/07/16 03:02:38;;;;;;;7.90;6.40;;;17.10;99.90;;;;;;5042064;28;20803;-83
2021/07/16 03:05:06;;;;;;;7.60;6.53;;;17.00;99.90;;;;;;5042665;28;20457;-83
2021/07/16 03:07:34;;;;;;;6.80;6.27;;;17.00;99.90;;;;;;5042405;28;20489;-83
2021/07/16 03:10:01;;;;;;;6.50;5.90;;;17.10;99.90;;;;;;5024640;28;20468;-83
2021/07/16 03:12:27;;;;;;;5.87;5.37;;;17.10;99.90;;;;;;5029197;28;20507;-83
2021/07/16 03:14:54;;;;;;;5.40;4.87;;;17.10;99.90;;;;;;5024566;28;20445;-83
2021/07/16 03:17:21;;;;;;;5.97;5.37;;;17.00;99.90;;;;;;5047620;28;20452;-83
2021/07/16 03:19:47;;;;;;;6.20;5.70;;;17.00;99.90;;;;;;5044808;28;20471;-83
2021/07/16 03:22:14;;;;;;;5.43;5.00;;;17.00;99.90;;;;;;5044111;28;20446;-83
2021/07/16 03:24:43;;;;;;;6.33;5.73;;;16.90;99.90;;;;;;5042306;28;20450;-83
2021/07/16 03:27:11;;;;;;;5.87;5.40;;;16.90;99.90;;;;;;5023178;28;20520;-83
2021/07/16 03:29:38;;;;;;;6.07;4.93;;;17.00;99.90;;;;;;5022208;28;20598;-83
2021/07/16 03:32:05;;;;;;;6.73;6.23;;;17.00;99.90;;;;;;5022802;28;20434;-83
2021/07/16 03:34:32;;;;;;;7.60;7.00;;;17.00;99.90;;;;;;5022683;28;20434;-83
2021/07/16 03:36:59;;;;;;;6.67;6.07;;;17.00;99.90;;;;;;5017143;28;20451;-91
2021/07/16 03:39:26;;;;;;;6.67;6.07;;;17.00;99.90;;;;;;5017269;28;20474;-91
2021/07/16 03:41:54;;;;;;;6.43;5.50;;;17.00;99.90;;;;;;5017788;28;20461;-91
2021/07/16 03:44:21;;;;;;;10.00;5.70;;;17.10;99.90;;;;;;5019655;28;20454;-90
2021/07/16 03:46:47;;;;;;;6.07;5.57;;;17.20;99.90;;;;;;5020718;28;20478;-92
2021/07/16 03:49:14;;;;;;;6.50;5.90;;;17.20;99.90;;;;;;5018983;28;20457;-89
2021/07/16 03:51:41;;;;;;;6.20;5.70;;;17.20;99.90;;;;;;5018415;28;20931;-90
2021/07/16 03:54:08;;;;;;;6.00;5.50;;;17.30;99.90;;;;;;5039056;28;20537;-90
2021/07/16 03:56:35;;;;;;;6.80;6.20;;;17.30;99.90;;;;;;5040524;28;20828;-92
2021/07/16 03:59:03;;;;;;;7.17;6.50;;;17.30;99.90;;;;;;5038150;28;20451;-92
2021/07/16 04:01:30;;;;;;;7.43;6.73;;;17.30;99.90;;;;;;5047403;28;20448;-91
2021/07/16 04:03:57;;;;;;;6.90;6.30;;;17.30;99.90;;;;;;5052819;28;20455;-91
2021/07/16 04:06:24;;;;;;;8.47;7.70;;;17.30;99.90;;;;;;5047112;28;20441;-91
2021/07/16 04:08:59;;;;;;;8.90;8.00;;;17.40;99.90;;;;;;5023132;28;20964;-92
2021/07/16 04:11:26;;;;;;;8.20;7.50;;;17.40;99.90;;;;;;5020017;28;20464;-89
2021/07/16 04:13:53;;;;;;;6.97;6.37;;;17.40;99.90;;;;;;5024903;28;20951;-91
2021/07/16 04:16:21;;;;;;;8.73;7.00;;;17.40;99.90;;;;;;5018575;28;20454;-91
2021/07/16 04:18:48;;;;;;;9.10;8.20;;;17.50;99.90;;;;;;5033425;28;20439;-89
2021/07/16 04:21:15;;;;;;;7.97;7.27;;;17.50;99.90;;;;;;5037039;28;20490;-90
2021/07/16 04:23:41;;;;;;;8.30;7.50;;;17.50;99.90;;;;;;5018167;28;20476;-90
2021/07/16 04:26:08;;;;;;;8.07;7.10;;;17.60;99.90;;;;;;5019507;28;20796;-90
2021/07/16 04:29:14;;;;;;;7.87;7.27;;;17.60;99.90;;;;;;5022779;28;20485;-90
2021/07/16 04:31:48;;;;;;;8.20;7.50;;;17.50;99.90;;;;;;5021015;28;20450;-88
2021/07/16 04:34:14;;;;;;;6.93;6.13;;;17.50;99.90;;;;;;5037428;28;20460;-89
2021/07/16 04:36:45;;;;;;;7.00;6.40;;;17.50;99.90;;;;;;5024899;28;20436;-90
2021/07/16 04:39:11;;;;;;;7.60;6.90;;;17.60;99.90;;;;;;5022794;28;20552;-91
2021/07/16 04:41:38;;;;;;;7.87;7.20;;;17.60;99.90;;;;;;5022039;28;20434;-90
2021/07/16 04:44:06;;;;;;;9.57;8.40;;;17.60;99.90;;;;;;5023661;28;20451;-90
2021/07/16 04:46:32;;;;;;;10.57;7.33;;;17.60;99.90;;;;;;5037864;28;20447;-90
2021/07/16 04:49:01;;;;;;;8.20;6.87;;;17.60;99.90;;;;;;5018441;28;20451;-91
2021/07/16 04:51:28;;;;;;;10.20;8.53;;;17.60;99.90;;;;;;5018096;28;20437;-91
2021/07/16 04:53:56;;;;;;;7.73;7.00;;;17.70;99.90;;;;;;5019140;28;20463;-90
2021/07/16 04:56:23;;;;;;;7.80;7.10;;;17.70;99.90;;;;;;5036258;28;20519;-90
2021/07/16 04:58:51;;;;;;;6.93;6.33;;;17.60;99.90;;;;;;5032627;28;20887;-91
2021/07/16 05:01:18;;;;;;;7.77;7.17;;;17.60;99.90;;;;;;5019583;28;20474;-90
2021/07/16 05:03:45;;;;;;;7.50;6.80;;;17.60;99.90;;;;;;5021014;28;20446;-90
2021/07/16 05:06:13;;;;;;;9.20;6.80;;;17.60;99.90;;;;;;5039131;28;20455;-91
2021/07/16 05:08:41;;;;;;;7.60;6.90;;;17.70;99.90;;;;;;5022792;28;20503;-90
2021/07/16 05:11:08;;;;;;;7.40;6.70;;;17.80;99.90;;;;;;5019204;28;21012;-91
2021/07/16 05:13:36;;;;;;;9.27;6.37;;;18.00;99.90;;;;;;5018575;28;20457;-90
2021/07/16 05:16:04;;;;;;;9.53;8.73;;;18.20;99.90;;;;;;5026888;28;20449;-90
2021/07/16 05:18:30;;;;;;;10.27;9.27;;;18.20;99.90;;;;;;5023276;28;20443;-90
2021/07/16 05:21:14;;;;;;;12.20;8.97;;;18.30;99.90;;;;;;5041112;28;20474;-92
2021/07/16 05:23:43;;;;;;;9.70;8.40;;;18.40;99.90;;;;;;5045729;28;20468;-92
2021/07/16 05:26:28;;;;;;;9.30;8.50;;;18.40;99.90;;;;;;5037932;28;20476;-92
2021/07/16 05:28:55;;;;;;;10.80;9.90;;;18.50;99.90;;;;;;5037164;28;20477;-91
2021/07/16 05:31:27;;;;;;;9.90;8.90;;;18.50;99.90;;;;;;5038564;28;20470;-90
2021/07/16 05:33:56;;;;;;;10.77;9.73;;;18.50;99.90;;;;;;5036440;28;20562;-91
2021/07/16 05:36:23;;;;;;;11.97;10.83;;;18.50;99.90;;;;;;5039015;28;20455;-91
2021/07/16 05:39:04;;;;;;;10.23;9.23;;;18.50;99.90;;;;;;5040299;28;20465;-89
2021/07/16 05:41:31;;;;;;;10.30;9.40;;;18.60;99.90;;;;;;5037526;28;20443;-90
2021/07/16 05:43:58;;;;;;;11.50;10.47;;;18.60;99.90;;;;;;5035495;28;20446;-90
2021/07/16 05:46:28;;;;;;;10.43;9.63;;;18.70;99.90;;;;;;5036130;28;20495;-91
2021/07/16 05:48:58;;;;;;;11.90;10.63;;;18.80;99.90;;;;;;5043489;28;20474;-89
2021/07/16 05:51:25;;;;;;;10.37;9.13;;;18.90;99.90;;;;;;5051851;28;20489;-91
2021/07/16 05:53:56;;;;;;;10.03;9.13;;;18.90;99.90;;;;;;5044049;28;20546;-89
2021/07/16 05:56:31;;;;;;;9.63;8.83;;;19.00;99.90;;;;;;5057047;28;20501;-88
2021/07/16 05:58:59;;;;;;;11.30;10.37;;;19.10;99.90;;;;;;5053566;28;20560;-89
2021/07/16 06:01:26;;;;;;;11.73;10.63;;;19.10;99.90;;;;;;5049107;28;20454;-89
2021/07/16 06:03:54;;;;;;;11.93;10.73;;;19.10;99.90;;;;;;5051580;28;20443;-89
2021/07/16 06:06:23;;;;;;;12.80;11.77;;;19.10;99.90;;;;;;5051620;28;20425;-89
2021/07/16 06:08:50;;;;;;;11.43;10.43;;;19.20;99.90;;;;;;5055383;28;20727;-89
2021/07/16 06:11:18;;;;;;;11.83;10.20;;;19.30;99.90;;;;;;5051532;28;20547;-88
2021/07/16 06:13:48;;;;;;;12.73;11.30;;;19.30;99.90;;;;;;5048356;28;20517;-90
2021/07/16 06:16:14;;;;;;;16.90;11.00;;;19.50;99.90;;;;;;5050847;28;20506;-89
2021/07/16 06:18:47;;;;;;;12.13;11.13;;;19.70;99.90;;;;;;5046949;28;20500;-90
2021/07/16 06:21:19;;;;;;;12.50;11.20;;;19.80;99.90;;;;;;5046029;28;20473;-90
2021/07/16 06:30:36;;;;;;;12.00;11.03;;;20.20;99.90;;;;;;5029541;28;20520;-92
2021/07/16 06:33:45;;;;;;;12.67;11.57;;;20.00;99.90;;;;;;5042351;28;20815;-93
2021/07/16 06:39:12;;;;;;;13.37;12.27;;;19.80;99.90;;;;;;5039908;28;20839;-91
2021/07/16 06:41:49;;;;;;;10.80;9.93;;;20.10;99.90;;;;;;5087880;22;20571;-93
2021/07/16 06:44:31;;;;;;;11.67;10.77;;;20.50;99.90;;;;;;5074951;28;20447;-92
2021/07/16 06:59:15;;;;;;;10.47;9.77;;;25.00;99.90;;;;;;5032327;28;20927;-94
2021/07/16 07:04:58;;;;;;;8.67;8.00;;;24.20;99.90;;;;;;5092579;23;20492;-94
2021/07/16 07:12:42;;;;;;;9.60;8.93;;;23.70;99.90;;;;;;5062364;22;20470;-93
2021/07/16 07:15:12;;;;;;;10.07;9.27;;;23.20;99.90;;;;;;5060739;28;20434;-96
2021/07/16 07:17:41;;;;;;;10.00;9.30;;;22.80;99.90;;;;;;5056193;28;20458;-92
2021/07/16 07:22:51;;;;;;;9.70;8.90;;;22.20;99.90;;;;;;5058923;28;20487;-92
2021/07/16 07:25:34;;;;;;;10.57;9.77;;;22.00;99.90;;;;;;5058641;28;20472;-93
2021/07/16 07:28:06;;;;;;;10.63;9.50;;;21.90;99.90;;;;;;5054778;28;20498;-93
2021/07/16 07:30:37;;;;;;;10.10;9.30;;;21.80;99.90;;;;;;5047999;28;20531;-92
2021/07/16 07:33:05;;;;;;;10.90;10.00;;;21.70;99.90;;;;;;5045221;28;20460;-92
2021/07/16 07:35:33;;;;;;;10.03;9.33;;;21.70;99.90;;;;;;5060542;28;20454;-96
2021/07/16 07:38:00;;;;;;;11.00;10.00;;;22.00;99.90;;;;;;5060699;28;20492;-95
2021/07/16 07:40:38;;;;;;;9.70;8.90;;;22.10;99.90;;;;;;5073449;22;20494;-93
2021/07/16 07:48:14;;;;;;;11.17;10.30;;;23.50;99.90;;;;;;5054850;28;20495;-93
2021/07/16 07:50:53;;;;;;;11.60;10.70;;;23.80;99.90;;;;;;5047490;28;20590;-94
2021/07/16 07:53:41;;;;;;;8.77;8.17;;;23.80;99.90;;;;;;5051511;28;20454;-92
2021/07/16 07:59:02;;;;;;;8.90;8.17;;;23.90;99.90;;;;;;5054679;28;20487;-93
2021/07/16 08:01:43;;;;;;;8.33;7.73;;;23.80;99.90;;;;;;5046527;28;20493;-93
2021/07/16 08:04:21;;;;;;;8.60;8.00;;;23.60;99.90;;;;;;5042569;28;20476;-93
2021/07/16 08:06:55;;;;;;;8.70;7.90;;;23.30;99.90;;;;;;5042813;28;20467;-92
2021/07/16 08:09:26;;;;;;;7.70;7.10;;;23.40;99.90;;;;;;5024816;28;20504;-95
2021/07/16 08:12:11;;;;;;;9.60;8.80;;;23.20;99.90;;;;;;5050911;28;20862;-93
2021/07/16 08:14:52;;;;;;;8.77;8.07;;;23.40;99.90;;;;;;5056475;28;20507;-96
2021/07/16 08:17:53;;;;;;;8.47;7.67;;;23.90;99.90;;;;;;5053121;28;20445;-93
2021/07/16 09:17:19;;;;;;;;;;;;;;;;;;;;;
2021/07/16 09:35:24;;;;;;;3.80;3.50;;;36.30;58.50;;;;;;4830338;29;20447;-90
2021/07/16 09:37:54;;;;;;;6.07;5.47;;;34.50;60.60;;;;;;5039829;28;20456;-90
2021/07/16 09:40:33;;;;;;;5.83;5.03;;;34.10;61.90;;;;;;5046321;28;20445;-90
2021/07/16 09:43:05;;;;;;;5.23;4.93;;;32.70;64.90;;;;;;5032781;28;20457;-90
2021/07/16 09:45:32;;;;;;;5.40;5.00;;;31.20;68.20;;;;;;5032196;28;20487;-90
2021/07/16 09:48:17;;;;;;;5.10;4.80;;;30.60;71.40;;;;;;5029428;28;20515;-90
2021/07/16 09:50:45;;;;;;;4.87;4.57;;;30.50;71.80;;;;;;5034555;28;20505;-90
2021/07/16 09:53:19;;;;;;;4.93;4.53;;;30.50;72.50;;;;;;5047992;28;20548;-90
2021/07/16 09:55:46;;;;;;;4.77;4.47;;;32.80;69.50;;;;;;5048778;28;20456;-90
2021/07/16 09:58:27;;;;;;;5.00;4.70;;;33.80;64.30;;;;;;5041721;28;20524;-90
2021/07/16 10:00:55;;;;;;;4.93;4.53;;;35.90;60.00;;;;;;5044429;28;20460;-90
2021/07/16 10:03:23;;;;;;;4.80;4.40;;;37.80;55.60;;;;;;5045060;28;20467;-90
2021/07/16 10:05:52;;;;;;;3.60;3.40;;;38.00;53.40;;;;;;5042189;28;20962;-89
2021/07/16 10:08:21;;;;;;;3.87;3.57;;;37.50;52.60;;;;;;5042782;28;20441;-90
2021/07/16 10:10:49;;;;;;;3.73;3.53;;;37.90;52.60;;;;;;5042824;28;20850;-90
2021/07/16 10:13:17;;;;;;;3.40;3.20;;;39.00;50.40;;;;;;5043121;28;20960;-90
2021/07/16 10:15:45;;;;;;;3.37;3.03;;;39.60;48.10;;;;;;5044649;28;20448;-88
2021/07/16 10:18:12;;;;;;;3.83;3.43;;;39.10;47.50;;;;;;5042272;28;20484;-88
2021/07/16 10:20:40;;;;;;;3.60;3.30;;;37.00;49.60;;;;;;5040862;28;20460;-90
2021/07/16 10:23:09;;;;;;;3.67;3.37;;;36.30;52.40;;;;;;5044609;28;20441;-90
2021/07/16 10:25:36;;;;;;;6.60;6.00;;;36.00;52.10;;;;;;5050879;28;20428;-90
2021/07/16 10:28:03;;;;;;;3.30;3.10;;;36.30;52.50;;;;;;5049803;28;20456;-91
2021/07/16 10:30:36;;;;;;;3.00;2.83;;;37.10;51.70;;;;;;5039571;28;20465;-90
2021/07/16 10:33:03;;;;;;;3.50;3.30;;;38.70;48.70;;;;;;5046056;28;20445;-91
2021/07/16 10:35:36;;;;;;;3.07;2.87;;;39.70;47.40;;;;;;5070676;28;20437;-93
2021/07/16 10:38:05;;;;;;;2.67;2.47;;;40.40;45.70;;;;;;5049521;28;20433;-92
2021/07/16 10:40:41;;;;;;;2.77;2.63;;;41.60;43.10;;;;;;5047887;28;20469;-90
2021/07/16 10:43:09;;;;;;;2.70;2.50;;;39.50;44.30;;;;;;5033507;28;20441;-90
2021/07/16 10:45:38;;;;;;;2.67;2.47;;;38.50;46.10;;;;;;5023515;28;20450;-90
2021/07/16 10:48:17;;;;;;;2.87;2.67;;;38.80;46.00;;;;;;5025395;28;20449;-90
2021/07/16 10:50:47;;;;;;;2.80;2.60;;;37.70;47.50;;;;;;5024710;28;20475;-91
2021/07/16 10:53:38;;;;;;;3.90;2.07;;;36.30;47.70;;;;;;5026998;28;20822;-90
2021/07/16 10:56:09;;;;;;;2.57;2.37;;;34.60;50.90;;;;;;5026049;28;20445;-90
2021/07/16 10:58:49;;;;;;;2.07;1.93;;;34.10;53.80;;;;;;5027487;28;20556;-90
2021/07/16 11:01:30;;;;;;;2.60;2.40;;;35.40;51.70;;;;;;5045312;28;20459;-91
2021/07/16 11:04:01;;;;;;;2.50;2.30;;;37.50;49.00;;;;;;5043763;28;20453;-91
2021/07/16 11:06:52;;;;;;;3.17;2.63;;;39.30;45.90;;;;;;5043218;28;20507;-91
2021/07/16 11:09:40;;;;;;;2.47;2.37;;;39.50;44.60;;;;;;5042568;28;20498;-91
2021/07/16 11:12:24;;;;;;;2.83;2.30;;;41.50;43.10;;;;;;5041959;28;20464;-90
2021/07/16 11:14:51;;;;;;;2.80;2.20;;;41.60;42.10;;;;;;5036739;28;20512;-90
2021/07/16 11:17:30;;;;;;;3.23;2.73;;;41.70;41.50;;;;;;5050034;28;20489;-90
2021/07/16 11:20:18;;;;;;;2.20;2.10;;;40.10;41.50;;;;;;5058833;28;20473;-91
2021/07/16 11:22:57;;;;;;;2.20;2.00;;;37.90;45.70;;;;;;5061023;28;20464;-91
2021/07/16 11:25:24;;;;;;;2.20;2.00;;;39.00;44.30;;;;;;5059267;28;20425;-91
2021/07/16 11:27:52;;;;;;;1.80;1.50;;;39.70;43.40;;;;;;5056241;28;20433;-91
2021/07/16 11:30:22;;;;;;;1.60;1.50;;;39.80;42.70;;;;;;5060139;28;20471;-90
2021/07/16 11:32:49;;;;;;;1.63;1.53;;;41.00;41.30;;;;;;5053774;28;20437;-90
2021/07/16 11:35:16;;;;;;;2.60;1.63;;;41.20;41.00;;;;;;5048622;28;20425;-90
2021/07/16 11:37:44;;;;;;;1.77;1.50;;;41.60;40.10;;;;;;5045021;28;20969;-89
2021/07/16 11:40:16;;;;;;;1.87;1.77;;;41.70;40.00;;;;;;5040640;28;20473;-89
2021/07/16 11:42:46;;;;;;;2.57;2.20;;;41.00;40.30;;;;;;5040979;28;20455;-90
2021/07/16 11:45:21;;;;;;;1.70;1.57;;;41.10;40.50;;;;;;5052011;28;20451;-90
2021/07/16 11:47:48;;;;;;;1.70;1.60;;;41.90;39.30;;;;;;5047093;28;20481;-90
2021/07/16 11:50:16;;;;;;;1.50;1.40;;;42.00;39.10;;;;;;5027806;28;20537;-90
2021/07/16 11:52:47;;;;;;;1.90;1.80;;;41.40;38.60;;;;;;5033553;28;20524;-90
2021/07/16 11:55:16;;;;;;;1.60;1.50;;;41.10;39.30;;;;;;5046211;28;20480;-91
2021/07/16 11:57:51;;;;;;;2.73;2.53;;;40.60;40.00;;;;;;5046752;28;20445;-90
2021/07/16 12:00:24;;;;;;;3.30;3.00;;;39.90;41.40;;;;;;5058463;28;20504;-89
2021/07/16 12:02:52;;;;;;;2.70;2.30;;;40.10;41.50;;;;;;5059112;28;20500;-90
2021/07/16 12:05:22;;;;;;;2.00;1.90;;;38.70;41.90;;;;;;5044889;28;20453;-89
2021/07/16 12:07:48;;;;;;;2.70;2.17;;;37.10;43.60;;;;;;5041247;28;20572;-90
2021/07/16 12:10:17;;;;;;;2.13;1.93;;;35.50;46.30;;;;;;5039858;28;20474;-88
2021/07/16 12:12:44;;;;;;;1.83;1.73;;;34.00;49.30;;;;;;5039332;28;20989;-88
2021/07/16 12:15:16;;;;;;;2.37;2.17;;;32.60;51.60;;;;;;5040010;28;20528;-89
2021/07/16 12:17:52;;;;;;;2.10;2.00;;;31.80;54.10;;;;;;5042588;28;20477;-90
2021/07/16 12:20:21;;;;;;;2.73;1.90;;;31.30;55.60;;;;;;5050404;28;20487;-88
2021/07/16 12:22:48;;;;;;;3.27;2.20;;;30.70;56.90;;;;;;5052537;28;20449;-88
2021/07/16 12:25:16;;;;;;;1.57;1.47;;;30.20;57.80;;;;;;5052722;28;20446;-87
2021/07/16 12:27:43;;;;;;;2.93;2.50;;;30.30;58.10;;;;;;5051955;28;20473;-88
2021/07/16 12:30:12;;;;;;;3.73;3.53;;;30.10;58.60;;;;;;5040499;28;20560;-87
2021/07/16 12:32:41;;;;;;;4.10;2.80;;;29.80;59.10;;;;;;5040867;28;20445;-88
2021/07/16 12:35:21;;;;;;;2.70;2.50;;;28.70;61.30;;;;;;5040443;28;20457;-88
2021/07/16 12:37:50;;;;;;;3.20;2.50;;;27.90;64.10;;;;;;5038390;28;20990;-88
2021/07/16 12:40:18;;;;;;;2.10;2.00;;;27.30;67.50;;;;;;5040736;28;20786;-88
2021/07/16 12:43:09;;;;;;;2.87;2.50;;;27.20;69.00;;;;;;5040756;28;20454;-88
2021/07/16 12:45:42;;;;;;;3.43;3.20;;;27.00;69.20;;;;;;5040163;28;20516;-88
2021/07/16 12:48:12;;;;;;;4.47;2.30;;;27.00;69.90;;;;;;5039959;28;20446;-88
2021/07/16 12:50:40;;;;;;;2.53;2.33;;;27.00;70.40;;;;;;5039646;28;20469;-88
2021/07/16 12:53:09;;;;;;;2.60;2.40;;;27.00;70.30;;;;;;5040026;28;20510;-88
2021/07/16 12:55:38;;;;;;;3.13;2.90;;;27.10;70.60;;;;;;5038960;28;20497;-88
2021/07/16 12:58:07;;;;;;;2.87;2.67;;;27.20;70.00;;;;;;5040379;28;20465;-88
2021/07/16 13:00:35;;;;;;;3.10;2.80;;;27.20;69.90;;;;;;5040717;28;20556;-88
2021/07/16 13:03:24;;;;;;;2.80;2.60;;;27.40;70.20;;;;;;5042078;28;20451;-89
2021/07/16 13:05:53;;;;;;;2.60;2.27;;;27.70;69.20;;;;;;5037276;28;20901;-88
2021/07/16 13:08:22;;;;;;;3.30;2.40;;;27.90;68.20;;;;;;5042147;28;21051;-88
2021/07/16 13:10:55;;;;;;;3.50;3.20;;;28.20;68.00;;;;;;5046323;28;20454;-88
2021/07/16 13:13:27;;;;;;;4.00;2.70;;;28.40;67.80;;;;;;5046527;28;20480;-87
2021/07/16 13:16:24;;;;;;;2.43;2.10;;;28.60;67.70;;;;;;5050210;28;20440;-88
2021/07/16 13:18:55;;;;;;;4.57;2.10;;;28.60;65.50;;;;;;4985229;28;20440;-88
2021/07/16 13:21:24;;;;;;;2.30;1.70;;;29.00;66.40;;;;;;5016720;28;20486;-88
2021/07/16 13:23:51;;;;;;;2.77;2.57;;;30.10;62.80;;;;;;5022491;28;20450;-88
2021/07/16 13:26:28;;;;;;;2.30;2.10;;;32.40;57.60;;;;;;5019394;28;20447;-88
2021/07/16 13:28:55;;;;;;;2.23;2.03;;;34.70;53.80;;;;;;5056468;28;20408;-88
2021/07/16 13:31:22;;;;;;;2.13;1.93;;;34.00;53.00;;;;;;5051714;28;20793;-87
2021/07/16 13:33:48;;;;;;;2.07;1.87;;;35.80;51.50;;;;;;5038754;28;20449;-88
2021/07/16 13:36:15;;;;;;;4.03;2.20;;;36.50;49.30;;;;;;5036919;28;20524;-88
2021/07/16 13:38:43;;;;;;;3.00;2.80;;;35.50;48.60;;;;;;5037972;28;20452;-88
2021/07/16 13:41:10;;;;;;;2.07;1.97;;;34.60;51.00;;;;;;5036290;28;20491;-89
2021/07/16 13:43:37;;;;;;;1.80;1.70;;;34.60;51.80;;;;;;5037679;28;20495;-88
2021/07/16 13:46:03;;;;;;;2.43;2.23;;;35.30;50.10;;;;;;5037141;28;20870;-89
2021/07/16 13:48:30;;;;;;;1.90;1.80;;;35.40;50.30;;;;;;5036812;28;20452;-87
2021/07/16 13:50:57;;;;;;;3.40;1.70;;;33.90;50.90;;;;;;5038716;28;20511;-88
2021/07/16 13:53:24;;;;;;;1.80;1.70;;;32.20;53.20;;;;;;5041863;28;20463;-89
2021/07/16 13:55:52;;;;;;;2.40;2.20;;;31.50;55.40;;;;;;5045915;28;20441;-89
2021/07/16 13:58:19;;;;;;;2.17;1.80;;;30.90;56.10;;;;;;5019659;28;20453;-88
2021/07/16 14:00:46;;;;;;;1.90;1.80;;;30.40;58.00;;;;;;5036941;28;20485;-89
2021/07/16 14:03:13;;;;;;;1.83;1.27;;;30.40;58.00;;;;;;5037745;28;20452;-88
2021/07/16 14:05:40;;;;;;;1.83;1.73;;;30.10;59.00;;;;;;5036694;28;20456;-89
2021/07/16 14:08:07;;;;;;;1.63;1.53;;;29.60;59.30;;;;;;5043204;28;20451;-89
2021/07/16 14:10:34;;;;;;;1.60;1.40;;;29.10;60.60;;;;;;5039691;28;20472;-89
2021/07/16 14:13:02;;;;;;;2.90;2.00;;;28.70;60.40;;;;;;5038356;28;20456;-88
2021/07/16 14:15:29;;;;;;;1.80;1.70;;;28.50;61.00;;;;;;5038347;28;20829;-89
2021/07/16 14:17:55;;;;;;;2.20;2.00;;;28.20;62.20;;;;;;5037301;28;20460;-88
2021/07/16 14:20:22;;;;;;;1.73;1.63;;;27.90;63.30;;;;;;5020862;28;20478;-89
2021/07/16 14:22:49;;;;;;;2.20;1.63;;;27.80;64.50;;;;;;5035286;28;20448;-89
2021/07/16 14:25:16;;;;;;;2.23;1.67;;;27.80;65.50;;;;;;5047275;28;20425;-89
2021/07/16 14:27:48;;;;;;;4.90;2.87;;;27.90;64.80;;;;;;5042722;28;20440;-88
2021/07/16 14:30:17;;;;;;;2.20;2.00;;;28.00;64.60;;;;;;5035630;28;20448;-89
2021/07/16 14:32:44;;;;;;;2.20;2.00;;;28.10;64.10;;;;;;5036026;28;20455;-88
2021/07/16 14:35:12;;;;;;;2.00;1.87;;;28.20;64.60;;;;;;5035832;28;20449;-89
2021/07/16 14:37:39;;;;;;;2.27;2.07;;;28.20;64.20;;;;;;5036431;28;20826;-89
2021/07/16 14:40:09;;;;;;;1.67;1.57;;;28.00;64.80;;;;;;5038748;28;20486;-88
2021/07/16 14:42:36;;;;;;;2.30;2.10;;;27.70;65.00;;;;;;5036976;28;20459;-89
2021/07/16 14:45:05;;;;;;;2.07;1.90;;;27.50;66.50;;;;;;5035790;28;20455;-90
2021/07/16 14:48:31;;;;;;;1.77;1.67;;;27.30;67.70;;;;;;5039731;28;20448;-93
2021/07/16 14:50:59;;;;;;;1.70;1.60;;;27.10;68.30;;;;;;5050967;28;20543;-91
2021/07/16 14:53:26;;;;;;;2.23;1.80;;;27.00;69.30;;;;;;5045235;28;20457;-91